createdAt,value
2022-10-25T00:00:58.420Z,86.14
2022-10-25T00:03:27.753Z,86.35
2022-10-25T00:05:55.741Z,86.43
2022-10-25T00:08:23.705Z,86.59
2022-10-25T00:10:51.667Z,86.46
2022-10-25T00:13:19.691Z,86.18
2022-10-25T00:15:47.702Z,86.41
2022-10-25T00:18:15.686Z,86.29
2022-10-25T00:20:46.740Z,86.44
2022-10-25T00:23:14.932Z,86.55
2022-10-25T00:25:44.594Z,86.66
2022-10-25T00:28:12.697Z,85.58
2022-10-25T00:30:40.678Z,85.88
2022-10-25T00:33:08.641Z,86.32
2022-10-25T00:35:37.710Z,86.78
2022-10-25T00:38:07.007Z,87.05
2022-10-25T00:40:35.154Z,86.85
2022-10-25T00:43:03.121Z,87.12
2022-10-25T00:45:31.254Z,87.37
2022-10-25T00:48:05.434Z,87.48
2022-10-25T00:50:49.026Z,87.82
2022-10-25T00:53:23.855Z,87.73
2022-10-25T00:56:00.210Z,87.88
2022-10-25T00:58:34.908Z,88.16
2022-10-25T01:01:08.191Z,88.36
2022-10-25T01:03:40.529Z,88.40
2022-10-25T01:06:18.763Z,88.40
2022-10-25T01:08:50.983Z,88.52
2022-10-25T01:11:20.841Z,88.55
2022-10-25T01:13:50.193Z,88.76
2022-10-25T01:16:28.335Z,88.86
2022-10-25T01:19:17.353Z,89.08
2022-10-25T01:21:50.751Z,88.98
2022-10-25T01:24:58.980Z,89.11
2022-10-25T01:28:02.149Z,89.16
2022-10-25T01:31:12.889Z,89.36
2022-10-25T01:33:47.986Z,89.93
2022-10-25T01:36:27.151Z,90.40
2022-10-25T01:39:09.912Z,90.82
2022-10-25T01:41:50.310Z,91.00
2022-10-25T01:47:12.214Z,91.41
2022-10-25T01:49:48.106Z,91.41
2022-10-25T01:52:19.372Z,91.33
2022-10-25T01:54:47.330Z,91.10
2022-10-25T01:57:44.444Z,91.25
2022-10-25T02:00:17.818Z,91.42
2022-10-25T02:03:15.062Z,91.76
2022-10-25T02:06:01.946Z,91.86
2022-10-25T02:08:40.968Z,92.10
2022-10-25T02:11:22.267Z,92.41
2022-10-25T02:14:03.981Z,92.26
2022-10-25T02:16:39.155Z,92.59
2022-10-25T02:19:14.596Z,92.88
2022-10-25T02:21:46.342Z,93.08
2022-10-25T02:24:19.105Z,93.10
2022-10-25T02:26:50.870Z,93.05
2022-10-25T02:29:22.138Z,93.10
2022-10-25T02:31:50.340Z,92.80
2022-10-25T02:34:20.784Z,92.92
2022-10-25T02:36:50.104Z,92.88
2022-10-25T02:39:19.461Z,92.83
2022-10-25T02:41:47.439Z,92.43
2022-10-25T02:44:15.531Z,92.44
2022-10-25T02:46:43.855Z,92.19
2022-10-25T02:49:12.007Z,92.04
2022-10-25T02:51:41.385Z,91.94
2022-10-25T02:54:09.389Z,92.17
2022-10-25T02:56:38.662Z,92.33
2022-10-25T02:59:06.658Z,92.49
2022-10-25T03:01:34.774Z,92.67
2022-10-25T03:04:02.819Z,92.95
2022-10-25T03:06:30.957Z,93.15
2022-10-25T03:09:00.292Z,93.21
2022-10-25T03:11:28.422Z,93.26
2022-10-25T03:13:56.441Z,93.47
2022-10-25T03:16:24.409Z,93.76
2022-10-25T03:18:52.446Z,93.81
2022-10-25T03:21:20.398Z,94.20
2022-10-25T03:23:48.361Z,94.45
2022-10-25T03:26:17.677Z,94.69
2022-10-25T03:28:45.671Z,94.82
2022-10-25T03:31:16.631Z,95.05
2022-10-25T03:33:45.072Z,95.15
2022-10-25T03:36:13.016Z,95.27
2022-10-25T03:38:41.394Z,95.45
2022-10-25T03:41:09.550Z,95.42
2022-10-25T03:43:39.013Z,95.76
2022-10-25T03:46:07.375Z,95.96
2022-10-25T03:48:35.327Z,95.98
2022-10-25T03:51:03.344Z,96.02
2022-10-25T03:53:31.353Z,96.19
2022-10-25T03:55:59.333Z,96.31
2022-10-25T03:58:27.329Z,96.28
2022-10-25T04:00:56.689Z,96.38
2022-10-25T04:03:24.836Z,96.55
2022-10-25T04:05:52.805Z,96.71
2022-10-25T04:08:20.759Z,96.70
2022-10-25T04:10:48.807Z,96.81
2022-10-25T04:13:16.900Z,97.04
2022-10-25T04:15:44.980Z,97.43
2022-10-25T04:18:14.298Z,97.20
2022-10-25T04:20:42.268Z,97.22
2022-10-25T04:23:10.226Z,97.18
2022-10-25T04:25:38.313Z,97.25
2022-10-25T04:28:06.387Z,97.03
2022-10-25T04:30:36.640Z,97.08
2022-10-25T04:33:06.757Z,97.08
2022-10-25T04:35:36.238Z,97.08
2022-10-25T04:38:04.258Z,96.97
2022-10-25T04:40:32.273Z,96.95
2022-10-25T04:43:02.310Z,96.69
2022-10-25T04:45:30.898Z,96.53
2022-10-25T04:47:58.904Z,96.24
2022-10-25T04:50:26.867Z,96.13
2022-10-25T04:52:56.194Z,96.28
2022-10-25T04:55:24.137Z,96.26
2022-10-25T04:57:53.104Z,96.08
2022-10-25T05:00:21.156Z,96.15
2022-10-25T05:02:49.438Z,96.18
2022-10-25T05:05:17.808Z,96.23
2022-10-25T05:07:45.807Z,96.09
2022-10-25T05:10:15.198Z,96.29
2022-10-25T05:12:43.453Z,96.26
2022-10-25T05:15:12.295Z,96.23
2022-10-25T05:17:40.256Z,96.41
2022-10-25T05:20:09.387Z,95.92
2022-10-25T05:22:37.358Z,95.77
2022-10-25T05:25:06.433Z,95.51
2022-10-25T05:27:39.355Z,94.88
2022-10-25T05:30:09.019Z,94.09
2022-10-25T05:32:37.232Z,93.25
2022-10-25T05:35:06.330Z,92.60
2022-10-25T05:37:34.318Z,92.69
2022-10-25T05:40:02.291Z,92.45
2022-10-25T05:42:30.262Z,91.67
2022-10-25T05:44:59.594Z,91.53
2022-10-25T05:47:27.582Z,89.61
2022-10-25T05:49:55.528Z,89.50
2022-10-25T05:52:23.522Z,90.25
2022-10-25T05:54:51.488Z,90.57
2022-10-25T05:57:20.435Z,90.86
2022-10-25T05:59:48.417Z,90.67
2022-10-25T06:02:17.953Z,90.82
2022-10-25T06:04:50.127Z,90.93
2022-10-25T06:07:19.663Z,90.82
2022-10-25T06:09:47.568Z,90.10
2022-10-25T06:12:15.602Z,88.63
2022-10-25T06:14:43.588Z,86.94
2022-10-25T06:17:13.088Z,86.39
2022-10-25T06:19:42.406Z,84.87
2022-10-25T06:22:10.477Z,83.72
2022-10-25T06:24:38.444Z,82.98
2022-10-25T06:27:06.454Z,82.81
2022-10-25T06:29:34.438Z,80.70
2022-10-25T06:32:02.509Z,81.27
2022-10-25T06:34:30.598Z,81.13
2022-10-25T06:36:59.919Z,81.44
2022-10-25T06:39:27.943Z,79.20
2022-10-25T06:41:55.889Z,78.80
2022-10-25T06:44:23.886Z,78.78
2022-10-25T06:47:15.903Z,76.93
2022-10-25T06:49:39.886Z,76.07
2022-10-25T06:52:09.306Z,76.19
2022-10-25T06:54:37.270Z,76.63
2022-10-25T06:57:05.270Z,76.65
2022-10-25T06:59:33.228Z,75.18
2022-10-25T07:02:01.363Z,75.40
2022-10-25T07:04:32.406Z,75.51
2022-10-25T07:07:00.543Z,74.34
2022-10-25T07:09:30.389Z,73.74
2022-10-25T07:11:58.511Z,73.54
2022-10-25T07:14:26.487Z,73.56
2022-10-25T07:16:54.553Z,73.54
2022-10-25T07:19:23.906Z,73.62
2022-10-25T07:21:52.789Z,73.45
2022-10-25T07:24:20.803Z,73.39
2022-10-25T07:26:50.120Z,72.73
2022-10-25T07:29:18.103Z,72.37
2022-10-25T07:31:46.255Z,72.67
2022-10-25T07:34:16.403Z,71.73
2022-10-25T07:36:45.382Z,70.71
2022-10-25T07:39:13.936Z,69.64
2022-10-25T07:41:41.991Z,69.71
2022-10-25T07:44:16.116Z,68.96
2022-10-25T07:46:45.557Z,67.89
2022-10-25T07:49:13.798Z,67.96
2022-10-25T07:51:41.769Z,67.63
2022-10-25T07:54:10.587Z,66.91
2022-10-25T07:56:38.602Z,66.77
2022-10-25T07:59:13.648Z,67.10
2022-10-25T08:01:43.057Z,66.36
2022-10-25T08:04:11.163Z,66.98
2022-10-25T08:06:39.126Z,67.24
2022-10-25T08:09:14.533Z,67.30
2022-10-25T08:11:48.434Z,66.23
2022-10-25T08:14:16.613Z,64.60
2022-10-25T08:16:45.955Z,64.27
2022-10-25T08:19:13.981Z,63.84
2022-10-25T08:21:41.967Z,64.50
2022-10-25T08:24:10.590Z,64.51
2022-10-25T08:26:38.562Z,64.36
2022-10-25T08:29:06.589Z,63.40
2022-10-25T08:31:34.653Z,62.17
2022-10-25T08:34:04.911Z,61.31
2022-10-25T08:36:32.943Z,60.70
2022-10-25T08:39:01.182Z,60.59
2022-10-25T08:41:44.609Z,60.82
2022-10-25T08:44:30.098Z,61.48
2022-10-25T08:47:04.275Z,61.95
2022-10-25T08:49:47.849Z,61.82
2022-10-25T08:52:27.342Z,62.86
2022-10-25T08:55:03.206Z,64.32
2022-10-25T08:57:40.588Z,64.25
2022-10-25T09:00:17.413Z,64.35
2022-10-25T09:02:53.358Z,63.68
2022-10-25T09:05:39.085Z,62.78
2022-10-25T09:08:46.092Z,62.99
2022-10-25T09:11:36.243Z,62.54
2022-10-25T09:14:13.791Z,62.67
2022-10-25T09:16:50.925Z,62.47
2022-10-25T09:19:28.127Z,62.65
2022-10-25T09:22:02.416Z,61.84
2022-10-25T09:24:36.553Z,62.78
2022-10-25T09:27:09.878Z,62.46
2022-10-25T09:29:42.564Z,62.32
2022-10-25T09:32:20.402Z,62.51
2022-10-25T09:34:49.125Z,63.06
2022-10-25T09:37:26.407Z,62.44
2022-10-25T09:40:02.111Z,62.73
2022-10-25T09:42:38.506Z,62.65
2022-10-25T09:45:19.350Z,62.92
2022-10-25T09:47:55.597Z,63.43
2022-10-25T09:50:30.795Z,63.22
2022-10-25T09:53:13.168Z,63.62
2022-10-25T09:55:53.086Z,62.71
2022-10-25T09:58:25.169Z,61.20
2022-10-25T10:00:56.681Z,61.15
2022-10-25T10:03:31.577Z,60.66
2022-10-25T10:06:03.901Z,61.36
2022-10-25T10:08:36.588Z,62.23
2022-10-25T10:11:06.279Z,62.40
2022-10-25T10:13:43.934Z,62.95
2022-10-25T10:16:22.963Z,63.59
2022-10-25T10:18:51.187Z,62.93
2022-10-25T10:21:22.144Z,63.24
2022-10-25T10:23:55.411Z,62.70
2022-10-25T10:26:31.172Z,63.33
2022-10-25T10:29:17.487Z,63.22
2022-10-25T10:31:49.421Z,63.93
2022-10-25T10:34:31.567Z,63.85
2022-10-25T10:37:15.218Z,64.33
2022-10-25T10:39:54.677Z,62.99
2022-10-25T10:42:24.774Z,62.98
2022-10-25T10:45:15.685Z,63.05
2022-10-25T10:47:46.846Z,62.27
2022-10-25T10:50:26.446Z,62.60
2022-10-25T10:53:00.840Z,63.82
2022-10-25T10:55:33.640Z,65.16
2022-10-25T10:58:08.074Z,66.32
2022-10-25T11:00:36.319Z,65.87
2022-10-25T11:03:04.467Z,66.31
2022-10-25T11:05:35.092Z,65.25
2022-10-25T11:08:18.385Z,63.23
2022-10-25T11:10:47.696Z,63.01
2022-10-25T11:13:18.528Z,60.73
2022-10-25T11:16:33.994Z,60.38
2022-10-25T11:19:31.807Z,59.67
2022-10-25T11:22:49.187Z,59.92
2022-10-25T11:25:34.638Z,61.09
2022-10-25T11:28:31.823Z,61.62
2022-10-25T11:31:11.428Z,61.81
2022-10-25T11:33:57.487Z,62.08
2022-10-25T11:36:59.262Z,59.67
2022-10-25T11:39:48.566Z,58.27
2022-10-25T11:42:41.647Z,58.16
2022-10-25T11:45:44.981Z,56.83
2022-10-25T11:48:34.917Z,57.16
2022-10-25T11:51:15.338Z,57.46
2022-10-25T11:54:14.032Z,57.93
2022-10-25T11:56:56.552Z,58.58
2022-10-25T11:59:38.309Z,58.56
2022-10-25T12:02:35.419Z,57.95
2022-10-25T12:05:22.727Z,57.74
2022-10-25T12:08:03.047Z,57.15
2022-10-25T12:10:38.285Z,57.42
2022-10-25T12:13:17.163Z,56.34
2022-10-25T12:15:48.985Z,56.32
2022-10-25T12:18:26.177Z,55.09
2022-10-25T12:20:56.069Z,55.40
2022-10-25T12:23:28.882Z,55.53
2022-10-25T12:26:05.909Z,55.41
2022-10-25T12:28:45.553Z,55.39
2022-10-25T12:31:20.039Z,54.08
2022-10-25T12:33:56.536Z,54.87
2022-10-25T12:36:36.142Z,53.12
2022-10-25T12:39:15.227Z,52.18
2022-10-25T12:41:49.831Z,52.19
2022-10-25T12:44:46.754Z,52.51
2022-10-25T12:47:55.147Z,54.17
2022-10-25T12:50:45.466Z,54.71
2022-10-25T12:54:04.061Z,55.45
2022-10-25T12:56:53.129Z,56.96
2022-10-25T12:59:42.854Z,56.85
2022-10-25T13:02:55.308Z,57.90
2022-10-25T13:06:15.240Z,57.66
2022-10-25T13:08:44.678Z,57.05
2022-10-25T13:11:13.522Z,56.34
2022-10-25T13:13:51.667Z,56.42
2022-10-25T13:16:28.880Z,56.44
2022-10-25T13:19:53.195Z,57.30
2022-10-25T13:22:37.787Z,55.44
2022-10-25T13:25:39.151Z,55.46
2022-10-25T13:28:34.054Z,55.95
2022-10-25T13:31:47.000Z,56.29
2022-10-25T13:34:41.112Z,56.54
2022-10-25T13:37:45.684Z,57.55
2022-10-25T13:40:27.193Z,58.56
2022-10-25T13:43:06.521Z,58.11
2022-10-25T13:45:42.830Z,57.92
2022-10-25T13:48:26.634Z,57.98
2022-10-25T13:50:57.778Z,58.04
2022-10-25T13:53:35.988Z,57.34
2022-10-25T13:56:08.816Z,57.95
2022-10-25T13:58:48.721Z,58.40
2022-10-25T14:01:55.625Z,58.75
2022-10-25T14:04:39.969Z,59.23
2022-10-25T14:07:47.721Z,59.97
2022-10-25T14:10:27.309Z,59.71
2022-10-25T14:13:09.036Z,61.06
2022-10-25T14:15:48.669Z,60.74
2022-10-25T14:18:22.075Z,60.86
2022-10-25T14:20:56.516Z,60.70
2022-10-25T14:23:30.135Z,60.64
2022-10-25T14:26:01.919Z,60.32
2022-10-25T14:28:32.252Z,61.59
2022-10-25T14:31:02.492Z,62.08
2022-10-25T14:33:36.620Z,61.74
2022-10-25T14:36:28.371Z,62.40
2022-10-25T14:38:59.911Z,62.09
2022-10-25T14:41:31.901Z,62.75
2022-10-25T14:44:00.473Z,63.31
2022-10-25T14:46:31.032Z,63.56
2022-10-25T14:49:01.219Z,63.87
2022-10-25T14:51:32.886Z,63.13
2022-10-25T14:54:06.792Z,62.92
2022-10-25T14:56:41.663Z,63.07
2022-10-25T14:59:26.322Z,63.50
2022-10-25T15:01:58.080Z,63.46
2022-10-25T15:04:36.131Z,64.06
2022-10-25T15:07:04.914Z,64.48
2022-10-25T15:09:49.229Z,64.92
2022-10-25T15:12:22.769Z,65.40
2022-10-25T15:14:50.923Z,66.52
2022-10-25T15:17:30.692Z,67.18
2022-10-25T15:20:01.272Z,66.53
2022-10-25T15:22:32.743Z,67.43
2022-10-25T15:25:00.881Z,67.94
2022-10-25T15:27:44.599Z,68.48
2022-10-25T15:30:38.322Z,69.04
2022-10-25T15:33:11.639Z,68.78
2022-10-25T15:35:50.588Z,68.77
2022-10-25T15:38:19.500Z,69.48
2022-10-25T15:40:49.100Z,69.63
2022-10-25T15:43:18.416Z,70.16
2022-10-25T15:45:46.850Z,70.22
2022-10-25T15:48:18.704Z,70.34
2022-10-25T15:50:51.246Z,70.52
2022-10-25T15:53:19.680Z,70.10
2022-10-25T15:55:49.064Z,70.71
2022-10-25T15:58:18.947Z,71.10
2022-10-25T16:00:47.932Z,70.69
2022-10-25T16:03:22.831Z,71.26
2022-10-25T16:05:52.399Z,71.92
2022-10-25T16:08:20.420Z,72.17
2022-10-25T16:10:48.416Z,72.66
2022-10-25T16:13:30.462Z,73.11
2022-10-25T16:15:59.042Z,73.85
2022-10-25T16:18:29.428Z,74.40
2022-10-25T16:20:59.074Z,75.10
2022-10-25T16:23:28.184Z,75.66
2022-10-25T16:25:57.189Z,76.19
2022-10-25T16:30:59.310Z,76.88
2022-10-25T16:33:27.227Z,77.26
2022-10-25T16:35:55.158Z,77.49
2022-10-25T16:38:23.059Z,77.75
2022-10-25T16:40:51.107Z,77.93
2022-10-25T16:43:19.005Z,78.47
2022-10-25T16:45:48.290Z,78.46
2022-10-25T16:48:16.626Z,78.30
2022-10-25T16:50:44.767Z,78.41
2022-10-25T16:53:14.846Z,78.60
2022-10-25T16:55:43.098Z,78.93
2022-10-25T16:58:11.472Z,78.94
2022-10-25T17:00:39.412Z,78.70
2022-10-25T17:03:09.989Z,78.75
2022-10-25T17:05:39.733Z,79.17
2022-10-25T17:08:07.638Z,79.26
2022-10-25T17:10:36.038Z,79.34
2022-10-25T17:13:05.353Z,79.54
2022-10-25T17:15:33.536Z,79.38
2022-10-25T17:18:01.466Z,79.36
2022-10-25T17:20:30.744Z,79.70
2022-10-25T17:22:58.658Z,80.12
2022-10-25T17:25:26.600Z,80.50
2022-10-25T17:27:55.211Z,81.04
2022-10-25T17:30:23.165Z,81.18
2022-10-25T17:32:51.546Z,81.70
2022-10-25T17:35:27.051Z,81.89
2022-10-25T17:37:58.795Z,82.12
2022-10-25T17:40:26.813Z,82.39
2022-10-25T17:42:55.794Z,82.61
2022-10-25T17:45:23.741Z,82.79
2022-10-25T17:47:51.697Z,83.09
2022-10-25T17:50:22.113Z,83.04
2022-10-25T17:52:51.644Z,82.88
2022-10-25T17:55:20.984Z,82.61
2022-10-25T17:57:50.032Z,82.88
2022-10-25T18:00:18.676Z,83.45
2022-10-25T18:02:50.517Z,83.80
2022-10-25T18:05:20.879Z,84.05
2022-10-25T18:07:50.121Z,84.31
2022-10-25T18:10:20.517Z,84.29
2022-10-25T18:12:49.193Z,84.49
2022-10-25T18:15:17.659Z,84.62
2022-10-25T18:17:46.758Z,84.98
2022-10-25T18:20:15.538Z,85.13
2022-10-25T18:22:43.588Z,85.45
2022-10-25T18:25:12.449Z,85.59
2022-10-25T18:27:41.750Z,86.14
2022-10-25T18:30:12.020Z,86.43
2022-10-25T18:32:39.967Z,86.39
2022-10-25T18:35:08.906Z,86.45
2022-10-25T18:37:36.803Z,86.50
2022-10-25T18:40:05.913Z,86.51
2022-10-25T18:42:35.627Z,86.91
2022-10-25T18:45:06.634Z,87.45
2022-10-25T18:47:34.938Z,87.60
2022-10-25T18:50:02.912Z,87.70
2022-10-25T18:52:30.872Z,87.91
2022-10-25T18:54:58.809Z,88.24
2022-10-25T18:57:26.739Z,88.60
2022-10-25T18:59:54.698Z,88.93
2022-10-25T19:02:24.104Z,89.20
2022-10-25T19:04:52.129Z,89.19
2022-10-25T19:07:20.071Z,88.84
2022-10-25T19:09:48.052Z,88.62
2022-10-25T19:12:16.056Z,88.86
2022-10-25T19:14:44.010Z,89.04
2022-10-25T19:17:12.112Z,89.39
2022-10-25T19:19:41.441Z,89.80
2022-10-25T19:22:09.379Z,89.98
2022-10-25T19:24:38.266Z,89.99
2022-10-25T19:27:06.244Z,90.23
2022-10-25T19:29:34.189Z,90.33
2022-10-25T19:32:02.191Z,90.34
2022-10-25T19:34:30.162Z,90.39
2022-10-25T19:37:04.129Z,90.61
2022-10-25T19:39:32.312Z,90.82
2022-10-25T19:42:00.319Z,91.10
2022-10-25T19:44:28.340Z,91.11
2022-10-25T19:46:56.323Z,90.94
2022-10-25T19:49:24.316Z,90.62
2022-10-25T19:51:52.326Z,90.78
2022-10-25T19:54:21.679Z,90.81
2022-10-25T19:56:50.924Z,90.78
2022-10-25T19:59:19.131Z,90.74
2022-10-25T20:01:48.772Z,90.48
2022-10-25T20:04:16.832Z,90.50
2022-10-25T20:06:45.029Z,90.57
2022-10-25T20:09:13.006Z,91.03
2022-10-25T20:11:42.442Z,91.05
2022-10-25T20:14:10.399Z,91.19
2022-10-25T20:16:38.695Z,91.14
2022-10-25T20:19:06.695Z,91.44
2022-10-25T20:21:37.500Z,91.71
2022-10-25T20:24:09.688Z,91.45
2022-10-25T20:26:40.807Z,91.24
2022-10-25T20:29:20.338Z,90.62
2022-10-25T20:31:50.886Z,90.00
2022-10-25T20:34:19.796Z,89.71
2022-10-25T20:36:47.883Z,89.59
2022-10-25T20:39:16.365Z,89.44
2022-10-25T20:41:44.483Z,88.57
2022-10-25T20:44:14.645Z,88.46
2022-10-25T20:46:42.848Z,88.47
2022-10-25T20:49:10.832Z,88.52
2022-10-25T20:51:38.921Z,88.45
2022-10-25T20:54:09.453Z,87.82
2022-10-25T20:56:39.286Z,87.49
2022-10-25T20:59:07.647Z,87.56
2022-10-25T21:01:37.342Z,88.22
2022-10-25T21:04:06.100Z,88.88
2022-10-25T21:06:34.086Z,89.26
2022-10-25T21:09:02.166Z,88.74
2022-10-25T21:11:30.173Z,88.27
2022-10-25T21:13:58.203Z,87.94
2022-10-25T21:16:26.218Z,88.20
2022-10-25T21:18:55.525Z,88.81
2022-10-25T21:21:23.489Z,89.42
2022-10-25T21:23:56.464Z,89.72
2022-10-25T21:26:24.778Z,89.84
2022-10-25T21:28:52.735Z,89.95
2022-10-25T21:31:20.765Z,90.12
2022-10-25T21:33:51.284Z,90.41
2022-10-25T21:36:22.022Z,90.38
2022-10-25T21:38:50.148Z,90.28
2022-10-25T21:41:26.428Z,90.62
2022-10-25T21:43:55.843Z,90.81
2022-10-25T21:46:26.637Z,90.96
2022-10-25T21:48:55.867Z,91.25
2022-10-25T21:51:25.826Z,91.33
2022-10-25T21:53:54.370Z,91.16
2022-10-25T21:56:30.571Z,91.33
2022-10-25T21:59:01.196Z,91.47
2022-10-25T22:01:31.441Z,91.70
2022-10-25T22:03:59.963Z,91.66
2022-10-25T22:06:30.378Z,91.55
2022-10-25T22:08:58.430Z,91.80
2022-10-25T22:11:29.123Z,91.73
2022-10-25T22:14:00.007Z,92.09
2022-10-25T22:16:29.364Z,92.10
2022-10-25T22:19:00.374Z,92.28
2022-10-25T22:21:32.893Z,92.29
2022-10-25T22:24:00.965Z,92.46
2022-10-25T22:26:29.287Z,92.54
2022-10-25T22:29:00.218Z,92.23
2022-10-25T22:31:30.410Z,92.39
2022-10-25T22:34:00.601Z,92.48
2022-10-25T22:36:32.385Z,92.19
2022-10-25T22:39:00.761Z,91.56
2022-10-25T22:41:30.725Z,91.22
2022-10-25T22:43:59.584Z,90.82
2022-10-25T22:46:30.460Z,91.11
2022-10-25T22:49:00.990Z,91.31
2022-10-25T22:51:30.326Z,91.55
2022-10-25T22:53:58.320Z,91.05
2022-10-25T22:56:28.528Z,91.20
2022-10-25T22:58:59.702Z,91.09
2022-10-25T23:01:30.436Z,91.26
2022-10-25T23:04:00.444Z,91.37
2022-10-25T23:06:33.282Z,91.36
2022-10-25T23:09:04.670Z,91.50
2022-10-25T23:11:35.582Z,91.73
2022-10-25T23:14:05.171Z,91.96
2022-10-25T23:16:33.191Z,91.87
2022-10-25T23:19:01.515Z,92.08
2022-10-25T23:21:31.737Z,92.18
2022-10-25T23:24:01.219Z,92.06
2022-10-25T23:26:32.033Z,92.24
2022-10-25T23:29:01.804Z,92.12
2022-10-25T23:31:31.424Z,91.51
2022-10-25T23:34:01.850Z,91.42
2022-10-25T23:36:37.238Z,91.45
2022-10-25T23:39:07.260Z,91.53
2022-10-25T23:41:35.472Z,91.62
2022-10-25T23:44:03.662Z,91.00
2022-10-25T23:46:31.791Z,90.31
2022-10-25T23:48:59.957Z,90.15
2022-10-25T23:51:27.923Z,90.44
2022-10-25T23:53:57.225Z,90.62
2022-10-25T23:56:25.270Z,90.48
2022-10-25T23:58:53.980Z,90.82
